createdAt,value
2022-09-05T00:02:02.343Z,99657.00
2022-09-05T00:05:19.345Z,99647.00
2022-09-05T00:08:02.451Z,99648.00
2022-09-05T00:11:18.130Z,99642.00
2022-09-05T00:15:14.641Z,99647.00
2022-09-05T00:19:09.350Z,99648.00
2022-09-05T00:24:26.771Z,99639.00
2022-09-05T00:25:07.212Z,99631.00
2022-09-05T00:28:41.312Z,99650.00
2022-09-05T00:31:55.520Z,99653.00
2022-09-05T00:35:08.573Z,99653.00
2022-09-05T00:37:49.313Z,99655.00
2022-09-05T00:40:37.839Z,99658.00
2022-09-05T00:43:27.373Z,99662.00
2022-09-05T00:46:08.932Z,99675.00
2022-09-05T00:49:25.379Z,99682.00
2022-09-05T00:52:02.182Z,99690.00
2022-09-05T00:54:53.403Z,99688.00
2022-09-05T00:58:05.345Z,99696.00
2022-09-05T01:00:52.355Z,99701.00
2022-09-05T01:04:13.367Z,99694.00
2022-09-05T01:07:00.104Z,99691.00
2022-09-05T01:10:14.389Z,99690.00
2022-09-05T01:13:11.652Z,99693.00
2022-09-05T01:16:22.443Z,99687.00
2022-09-05T01:19:42.414Z,99678.00
2022-09-05T01:22:49.415Z,99677.00
2022-09-05T01:25:54.922Z,99674.00
2022-09-05T01:29:19.376Z,99674.00
2022-09-05T01:32:33.200Z,99676.00
2022-09-05T01:35:34.397Z,99680.00
2022-09-05T01:38:48.304Z,99675.00
2022-09-05T01:41:50.417Z,99679.00
2022-09-05T01:44:37.559Z,99683.00
2022-09-05T01:47:37.442Z,99692.00
2022-09-05T01:50:38.391Z,99687.00
2022-09-05T01:53:55.214Z,99681.00
2022-09-05T01:57:12.454Z,99682.00
2022-09-05T02:00:17.435Z,99677.00
2022-09-05T02:03:43.378Z,99676.00
2022-09-05T02:06:51.735Z,99675.00
2022-09-05T02:09:34.440Z,99664.00
2022-09-05T02:12:20.246Z,99670.00
2022-09-05T02:15:07.425Z,99665.00
2022-09-05T02:17:49.654Z,99669.00
2022-09-05T02:20:52.440Z,99658.00
2022-09-05T02:23:24.617Z,99650.00
2022-09-05T02:26:27.469Z,99657.00
2022-09-05T02:29:29.628Z,99658.00
2022-09-05T02:32:32.440Z,99651.00
2022-09-05T02:35:14.750Z,99651.00
2022-09-05T02:39:09.140Z,99644.00
2022-09-05T02:45:08.056Z,99645.00
2022-09-05T02:45:25.702Z,99644.00
2022-09-05T02:48:15.451Z,99656.00
2022-09-05T02:57:23.112Z,99649.00
2022-09-05T02:57:34.408Z,99659.00
2022-09-05T02:57:35.916Z,99645.00
2022-09-05T03:00:27.494Z,99661.00
2022-09-05T03:03:35.568Z,99660.00
2022-09-05T03:06:38.442Z,99656.00
2022-09-05T03:09:49.437Z,99661.00
2022-09-05T03:12:55.860Z,99652.00
2022-09-05T03:16:15.539Z,99662.00
2022-09-05T03:19:04.499Z,99666.00
2022-09-05T03:21:49.478Z,99656.00
2022-09-05T03:24:56.500Z,99666.00
2022-09-05T03:28:11.470Z,99666.00
2022-09-05T03:31:22.673Z,99670.00
2022-09-05T03:34:10.480Z,99669.00
2022-09-05T03:37:34.727Z,99664.00
2022-09-05T03:40:45.511Z,99669.00
2022-09-05T03:43:54.004Z,99666.00
2022-09-05T03:46:45.469Z,99664.00
2022-09-05T03:57:04.866Z,99651.00
2022-09-05T03:57:08.043Z,99656.00
2022-09-05T03:57:27.458Z,99654.00
2022-09-05T03:59:30.554Z,99662.00
2022-09-05T04:04:37.900Z,99670.00
2022-09-05T04:08:15.981Z,99670.00
2022-09-05T04:08:38.822Z,99668.00
2022-09-05T04:11:35.511Z,99666.00
2022-09-05T04:14:50.491Z,99682.00
2022-09-05T04:17:37.475Z,99678.00
2022-09-05T04:20:08.472Z,99682.00
2022-09-05T04:23:27.526Z,99695.00
2022-09-05T04:26:09.313Z,99694.00
2022-09-05T04:29:27.492Z,99691.00
2022-09-05T04:32:15.458Z,99692.00
2022-09-05T04:35:46.505Z,99694.00
2022-09-05T04:38:18.305Z,99690.00
2022-09-05T04:41:14.492Z,99696.00
2022-09-05T04:43:57.625Z,99693.00
2022-09-05T04:46:57.501Z,99696.00
2022-09-05T04:49:31.265Z,99706.00
2022-09-05T04:52:34.520Z,99715.00
2022-09-05T04:55:25.537Z,99713.00
2022-09-05T04:58:06.519Z,99714.00
2022-09-05T05:05:58.697Z,99717.00
2022-09-05T05:06:16.897Z,99724.00
2022-09-05T05:06:45.370Z,99712.00
2022-09-05T05:10:19.516Z,99723.00
2022-09-05T05:17:35.327Z,99730.00
2022-09-05T05:18:11.989Z,99720.00
2022-09-05T05:19:04.280Z,99726.00
2022-09-05T05:21:39.553Z,99728.00
2022-09-05T05:24:43.738Z,99724.00
2022-09-05T05:27:59.535Z,99726.00
2022-09-05T05:30:28.577Z,99728.00
2022-09-05T05:33:01.542Z,99726.00
2022-09-05T05:35:38.581Z,99742.00
2022-09-05T05:38:28.129Z,99741.00
2022-09-05T05:41:44.542Z,99742.00
2022-09-05T05:44:23.549Z,99759.00
2022-09-05T05:46:58.700Z,99756.00
2022-09-05T05:50:04.562Z,99758.00
2022-09-05T05:53:00.317Z,99772.00
2022-09-05T05:55:59.551Z,99776.00
2022-09-05T05:58:52.570Z,99781.00
2022-09-05T06:01:37.923Z,99779.00
2022-09-05T06:05:03.969Z,99781.00
2022-09-05T06:12:18.925Z,99771.00
2022-09-05T06:15:01.461Z,99777.00
2022-09-05T06:15:15.200Z,99772.00
2022-09-05T06:18:05.580Z,99770.00
2022-09-05T06:22:10.650Z,99771.00
2022-09-05T06:24:28.731Z,99768.00
2022-09-05T06:27:32.330Z,99772.00
2022-09-05T06:30:27.545Z,99752.00
2022-09-05T06:33:17.735Z,99770.00
2022-09-05T06:36:04.694Z,99775.00
2022-09-05T06:39:11.059Z,99772.00
2022-09-05T06:42:33.363Z,99756.00
2022-09-05T06:45:37.740Z,99743.00
2022-09-05T06:48:46.115Z,99720.00
2022-09-05T06:51:45.184Z,99748.00
2022-09-05T06:54:59.542Z,99760.00
2022-09-05T06:58:02.042Z,99758.00
2022-09-05T07:01:08.895Z,99744.00
2022-09-05T07:04:51.472Z,99739.00
2022-09-05T07:07:12.748Z,99738.00
2022-09-05T07:10:35.012Z,99744.00
2022-09-05T07:14:02.944Z,99774.00
2022-09-05T07:16:53.799Z,99755.00
2022-09-05T07:19:30.052Z,99756.00
2022-09-05T07:22:47.431Z,99665.00
2022-09-05T07:25:37.834Z,99759.00
2022-09-05T07:28:28.887Z,99757.00
2022-09-05T07:31:11.252Z,99759.00
2022-09-05T07:33:38.655Z,99754.00
2022-09-05T07:36:40.956Z,99756.00
2022-09-05T07:39:27.854Z,99753.00
2022-09-05T07:42:07.259Z,99767.00
2022-09-05T07:44:39.659Z,99770.00
2022-09-05T07:47:36.193Z,99770.00
2022-09-05T07:51:52.656Z,99769.00
2022-09-05T07:56:48.019Z,99767.00
2022-09-05T07:57:08.067Z,99780.00
2022-09-05T07:58:52.764Z,99769.00
2022-09-05T08:01:30.013Z,99783.00
2022-09-05T08:04:05.472Z,99785.00
2022-09-05T08:07:45.716Z,99787.00
2022-09-05T08:10:09.339Z,99782.00
2022-09-05T08:13:24.217Z,99787.00
2022-09-05T08:16:10.997Z,99774.00
2022-09-05T08:19:34.878Z,99779.00
2022-09-05T08:22:04.671Z,99778.00
2022-09-05T08:24:55.868Z,99779.00
2022-09-05T08:28:04.475Z,99786.00
2022-09-05T08:30:47.899Z,99772.00
2022-09-05T08:33:26.177Z,99793.00
2022-09-05T08:36:03.082Z,99792.00
2022-09-05T08:38:40.562Z,99799.00
2022-09-05T08:41:25.963Z,99798.00
2022-09-05T08:46:42.291Z,99788.00
2022-09-05T08:48:32.990Z,99768.00
2022-09-05T08:51:34.207Z,99763.00
2022-09-05T08:54:36.683Z,99765.00
2022-09-05T08:57:26.984Z,99772.00
2022-09-05T09:00:24.437Z,99771.00
2022-09-05T09:03:19.044Z,99770.00
2022-09-05T09:06:12.792Z,99763.00
2022-09-05T09:09:43.988Z,99769.00
2022-09-05T09:12:37.287Z,99763.00
2022-09-05T09:15:35.099Z,99758.00
2022-09-05T09:18:17.192Z,99759.00
2022-09-05T09:21:37.291Z,99751.00
2022-09-05T09:25:11.932Z,99749.00
2022-09-05T09:28:48.578Z,99742.00
2022-09-05T09:31:03.239Z,99738.00
2022-09-05T09:33:46.672Z,99740.00
2022-09-05T09:36:52.000Z,99742.00
2022-09-05T09:39:53.641Z,99749.00
2022-09-05T09:42:50.305Z,99745.00
2022-09-05T09:45:57.829Z,99749.00
2022-09-05T09:48:58.731Z,99748.00
2022-09-05T09:51:47.617Z,99739.00
2022-09-05T09:55:29.738Z,99745.00
2022-09-05T09:58:35.235Z,99739.00
2022-09-05T10:01:35.989Z,99739.00
2022-09-05T10:08:59.772Z,99723.00
2022-09-05T10:10:58.128Z,99728.00
2022-09-05T10:10:59.082Z,99725.00
2022-09-05T10:14:49.868Z,99719.00
2022-09-05T10:17:43.084Z,99704.00
2022-09-05T10:21:16.262Z,99711.00
2022-09-05T10:24:33.012Z,99693.00
2022-09-05T10:27:24.984Z,99695.00
2022-09-05T10:30:13.839Z,99686.00
2022-09-05T10:35:09.967Z,99694.00
2022-09-05T10:35:44.953Z,99701.00
2022-09-05T10:38:28.119Z,99684.00
2022-09-05T10:41:20.521Z,99691.00
2022-09-05T10:44:07.417Z,99688.00
2022-09-05T10:47:41.019Z,99691.00
2022-09-05T10:50:33.227Z,99686.00
2022-09-05T10:53:39.769Z,99691.00
2022-09-05T10:56:20.620Z,99705.00
2022-09-05T11:00:30.566Z,99673.00
2022-09-05T11:02:20.028Z,99676.00
2022-09-05T11:05:11.441Z,99671.00
2022-09-05T11:08:25.326Z,99669.00
2022-09-05T11:11:28.498Z,99669.00
2022-09-05T11:14:26.346Z,99660.00
2022-09-05T11:16:56.361Z,99656.00
2022-09-05T11:19:51.929Z,99651.00
2022-09-05T11:22:24.009Z,99648.00
2022-09-05T11:25:01.131Z,99642.00
2022-09-05T11:27:42.929Z,99632.00
2022-09-05T11:30:30.327Z,99622.00
2022-09-05T11:39:14.806Z,99624.00
2022-09-05T11:40:07.048Z,99618.00
2022-09-05T11:41:06.821Z,99614.00
2022-09-05T11:44:30.499Z,99608.00
2022-09-05T11:47:28.381Z,99603.00
2022-09-05T11:50:51.145Z,99622.00
2022-09-05T11:54:03.940Z,99623.00
2022-09-05T11:57:33.831Z,99619.00
2022-09-05T12:00:33.511Z,99615.00
2022-09-05T12:03:59.027Z,99613.00
2022-09-05T12:07:04.242Z,99606.00
2022-09-05T12:10:47.361Z,99610.00
2022-09-05T12:13:26.370Z,99604.00
2022-09-05T12:16:08.414Z,99586.00
2022-09-05T12:19:19.529Z,99595.00
2022-09-05T12:22:32.722Z,99590.00
2022-09-05T12:27:40.933Z,99597.00
2022-09-05T12:29:33.692Z,99584.00
2022-09-05T12:33:56.636Z,99588.00
2022-09-05T12:36:07.376Z,99579.00
2022-09-05T12:40:53.763Z,99574.00
2022-09-05T12:41:44.712Z,99567.00
2022-09-05T12:44:42.286Z,99566.00
2022-09-05T12:47:20.125Z,99560.00
2022-09-05T12:50:15.197Z,99554.00
2022-09-05T12:53:13.902Z,99550.00
2022-09-05T12:57:32.516Z,99553.00
2022-09-05T13:03:02.905Z,99543.00
2022-09-05T13:03:12.927Z,99547.00
2022-09-05T13:05:01.945Z,99543.00
2022-09-05T13:07:57.959Z,99537.00
2022-09-05T13:14:50.602Z,99532.00
2022-09-05T13:15:07.973Z,99530.00
2022-09-05T13:16:39.924Z,99521.00
2022-09-05T13:19:26.609Z,99522.00
2022-09-05T13:21:59.912Z,99503.00
2022-09-05T13:24:29.762Z,99511.00
2022-09-05T13:27:20.996Z,99498.00
2022-09-05T13:32:32.244Z,99493.00
2022-09-05T13:38:05.947Z,99492.00
2022-09-05T13:38:10.928Z,99496.00
2022-09-05T13:39:05.958Z,99493.00
2022-09-05T13:41:54.937Z,99489.00
2022-09-05T13:44:25.226Z,99486.00
2022-09-05T13:46:58.175Z,99487.00
2022-09-05T13:49:40.967Z,99490.00
2022-09-05T13:52:38.957Z,99489.00
2022-09-05T13:55:32.923Z,99486.00
2022-09-05T13:58:29.000Z,99482.00
2022-09-05T14:01:18.884Z,99486.00
2022-09-05T14:07:46.154Z,99477.00
2022-09-05T14:10:38.990Z,99483.00
2022-09-05T14:13:22.944Z,99480.00
2022-09-05T14:16:15.064Z,99473.00
2022-09-05T14:18:50.738Z,99471.00
2022-09-05T14:21:25.946Z,99486.00
2022-09-05T14:24:04.841Z,99483.00
2022-09-05T14:26:55.947Z,99474.00
2022-09-05T14:29:42.024Z,99475.00
2022-09-05T14:37:36.554Z,99478.00
2022-09-05T14:37:39.711Z,99474.00
2022-09-05T14:38:47.057Z,99473.00
2022-09-05T14:42:10.055Z,99473.00
2022-09-05T14:45:36.005Z,99469.00
2022-09-05T14:49:07.247Z,99472.00
2022-09-05T14:51:39.220Z,99464.00
2022-09-05T15:02:26.323Z,99455.00
2022-09-05T15:02:58.672Z,99449.00
2022-09-05T15:03:15.768Z,99461.00
2022-09-05T15:05:47.107Z,99470.00
2022-09-05T15:11:13.889Z,99468.00
2022-09-05T15:12:15.630Z,99465.00
2022-09-05T15:14:16.010Z,99461.00
2022-09-05T15:16:43.051Z,99458.00
2022-09-05T15:19:17.021Z,99460.00
2022-09-05T15:21:43.967Z,99466.00
2022-09-05T15:24:27.052Z,99457.00
2022-09-05T15:27:01.868Z,99466.00
2022-09-05T15:29:38.029Z,99468.00
2022-09-05T15:32:19.637Z,99456.00
2022-09-05T15:34:53.044Z,99462.00
2022-09-05T15:37:32.437Z,99467.00
2022-09-05T15:40:22.373Z,99469.00
2022-09-05T15:43:07.054Z,99463.00
2022-09-05T15:45:37.390Z,99455.00
2022-09-05T15:48:33.958Z,99468.00
2022-09-05T15:51:11.267Z,99466.00
2022-09-05T15:53:46.094Z,99457.00
2022-09-05T15:56:14.657Z,99463.00
2022-09-05T15:59:00.081Z,99454.00
2022-09-05T16:01:59.793Z,99446.00
2022-09-05T16:08:32.792Z,99451.00
2022-09-05T16:10:34.563Z,99438.00
2022-09-05T16:10:35.758Z,99444.00
2022-09-05T16:13:16.004Z,99437.00
2022-09-05T16:22:26.609Z,99445.00
2022-09-05T16:23:17.445Z,99447.00
2022-09-05T16:23:29.336Z,99447.00
2022-09-05T16:24:59.393Z,99445.00
2022-09-05T16:27:59.099Z,99446.00
2022-09-05T16:30:44.133Z,99437.00
2022-09-05T16:33:22.414Z,99444.00
2022-09-05T16:36:31.163Z,99449.00
2022-09-05T16:39:11.317Z,99451.00
2022-09-05T16:41:59.075Z,99448.00
2022-09-05T16:44:36.246Z,99442.00
2022-09-05T16:47:36.746Z,99438.00
2022-09-05T16:50:34.344Z,99436.00
2022-09-05T16:53:48.185Z,99427.00
2022-09-05T16:56:50.149Z,99434.00
2022-09-05T16:59:32.131Z,99430.00
2022-09-05T17:02:37.132Z,99430.00
2022-09-05T17:05:50.150Z,99422.00
2022-09-05T17:08:33.094Z,99425.00
2022-09-05T17:11:03.470Z,99440.00
2022-09-05T17:13:45.217Z,99443.00
2022-09-05T17:16:42.106Z,99433.00
2022-09-05T17:19:27.189Z,99445.00
2022-09-05T17:25:48.761Z,99446.00
2022-09-05T17:29:33.143Z,99439.00
2022-09-05T17:29:34.491Z,99436.00
2022-09-05T17:31:58.753Z,99441.00
2022-09-05T17:35:17.744Z,99449.00
2022-09-05T17:38:34.801Z,99453.00
2022-09-05T17:41:41.185Z,99446.00
2022-09-05T17:44:29.249Z,99457.00
2022-09-05T17:47:15.248Z,99455.00
2022-09-05T17:49:44.814Z,99454.00
2022-09-05T17:52:12.289Z,99452.00
2022-09-05T17:54:50.125Z,99453.00
2022-09-05T17:57:33.417Z,99454.00
2022-09-05T18:00:12.108Z,99447.00
2022-09-05T18:02:59.804Z,99444.00
2022-09-05T18:06:10.169Z,99443.00
2022-09-05T18:08:53.234Z,99447.00
2022-09-05T18:11:25.767Z,99449.00
2022-09-05T18:14:25.287Z,99449.00
2022-09-05T18:17:35.865Z,99445.00
2022-09-05T18:19:47.223Z,99443.00
2022-09-05T18:22:38.128Z,99441.00
2022-09-05T18:25:28.936Z,99437.00
2022-09-05T18:28:20.553Z,99447.00
2022-09-05T18:30:56.178Z,99435.00
2022-09-05T18:33:54.613Z,99456.00
2022-09-05T18:36:27.650Z,99458.00
2022-09-05T18:39:24.556Z,99452.00
2022-09-05T18:42:34.017Z,99450.00
2022-09-05T18:45:16.381Z,99454.00
2022-09-05T18:48:01.651Z,99444.00
2022-09-05T18:50:34.770Z,99461.00
2022-09-05T18:53:12.685Z,99464.00
2022-09-05T18:56:20.209Z,99461.00
2022-09-05T18:59:12.167Z,99460.00
2022-09-05T19:02:39.643Z,99461.00
2022-09-05T19:05:28.516Z,99464.00
2022-09-05T19:07:59.563Z,99466.00
2022-09-05T19:10:36.904Z,99463.00
2022-09-05T19:13:20.235Z,99467.00
2022-09-05T19:16:43.629Z,99461.00
2022-09-05T19:19:24.574Z,99480.00
2022-09-05T19:23:02.639Z,99471.00
2022-09-05T19:24:51.296Z,99490.00
2022-09-05T19:27:25.257Z,99485.00
2022-09-05T19:36:52.444Z,99495.00
2022-09-05T19:37:11.013Z,99488.00
2022-09-05T19:37:15.393Z,99494.00
2022-09-05T19:41:24.353Z,99493.00
2022-09-05T19:47:28.292Z,99506.00
2022-09-05T19:47:57.688Z,99494.00
2022-09-05T19:48:08.160Z,99494.00
2022-09-05T19:50:35.861Z,99499.00
2022-09-05T19:53:14.220Z,99505.00
2022-09-05T19:55:41.323Z,99500.00
2022-09-05T19:58:34.504Z,99501.00
2022-09-05T20:01:06.279Z,99506.00
2022-09-05T20:03:41.233Z,99507.00
2022-09-05T20:06:28.802Z,99510.00
2022-09-05T20:09:24.315Z,99515.00
2022-09-05T20:11:56.526Z,99512.00
2022-09-05T20:14:31.404Z,99518.00
2022-09-05T20:17:35.324Z,99513.00
2022-09-05T20:20:36.288Z,99515.00
2022-09-05T20:23:13.385Z,99503.00
2022-09-05T20:25:45.441Z,99510.00
2022-09-05T20:28:23.291Z,99484.00
2022-09-05T20:31:03.300Z,99505.00
2022-09-05T20:33:52.071Z,99493.00
2022-09-05T20:43:15.562Z,99497.00
2022-09-05T20:43:27.433Z,99496.00
2022-09-05T20:43:35.180Z,99463.00
2022-09-05T20:46:16.120Z,99488.00
2022-09-05T20:54:07.568Z,99495.00
2022-09-05T20:54:18.418Z,99497.00
2022-09-05T20:55:07.717Z,99494.00
2022-09-05T20:57:52.420Z,99483.00
2022-09-05T21:00:31.479Z,99492.00
2022-09-05T21:02:59.887Z,99496.00
2022-09-05T21:05:41.310Z,99480.00
2022-09-05T21:08:35.600Z,99483.00
2022-09-05T21:11:11.290Z,99487.00
2022-09-05T21:13:52.499Z,99483.00
2022-09-05T21:16:34.389Z,99477.00
2022-09-05T21:19:01.503Z,99481.00
2022-09-05T21:21:40.286Z,99478.00
2022-09-05T21:24:18.859Z,99481.00
2022-09-05T21:26:56.306Z,99483.00
2022-09-05T21:29:33.114Z,99480.00
2022-09-05T21:32:10.382Z,99489.00
2022-09-05T21:34:56.301Z,99489.00
2022-09-05T21:37:24.386Z,99486.00
2022-09-05T21:40:00.911Z,99495.00
2022-09-05T21:47:17.222Z,99496.00
2022-09-05T21:47:43.099Z,99487.00
2022-09-05T21:48:14.143Z,99492.00
2022-09-05T21:50:56.328Z,99490.00
2022-09-05T21:59:13.295Z,99486.00
2022-09-05T21:59:17.169Z,99492.00
2022-09-05T21:59:46.111Z,99482.00
2022-09-05T22:02:14.373Z,99483.00
2022-09-05T22:04:48.400Z,99489.00
2022-09-05T22:07:15.651Z,99479.00
2022-09-05T22:09:49.423Z,99483.00
2022-09-05T22:12:30.685Z,99487.00
2022-09-05T22:15:27.644Z,99482.00
2022-09-05T22:18:17.069Z,99488.00
2022-09-05T22:21:31.864Z,99484.00
2022-09-05T22:23:50.318Z,99475.00
2022-09-05T22:26:17.940Z,99487.00
2022-09-05T22:28:44.983Z,99484.00
2022-09-05T22:31:18.446Z,99483.00
2022-09-05T22:33:46.085Z,99487.00
2022-09-05T22:36:24.383Z,99490.00
2022-09-05T22:38:54.683Z,99478.00
2022-09-05T22:41:30.281Z,99489.00
2022-09-05T22:43:58.258Z,99478.00
2022-09-05T22:46:31.476Z,99495.00
2022-09-05T22:49:05.366Z,99497.00
2022-09-05T22:51:32.327Z,99481.00
2022-09-05T22:53:59.327Z,99478.00
2022-09-05T22:56:42.404Z,99470.00
2022-09-05T22:59:09.497Z,99474.00
2022-09-05T23:01:43.395Z,99477.00
2022-09-05T23:04:17.580Z,99480.00
2022-09-05T23:06:51.388Z,99477.00
2022-09-05T23:09:18.332Z,99476.00
2022-09-05T23:11:45.362Z,99472.00
2022-09-05T23:14:18.353Z,99475.00
2022-09-05T23:16:45.326Z,99471.00
2022-09-05T23:19:18.370Z,99474.00
2022-09-05T23:21:45.355Z,99458.00
2022-09-05T23:24:12.382Z,99465.00
2022-09-05T23:26:46.403Z,99473.00
2022-09-05T23:29:13.404Z,99479.00
2022-09-05T23:31:40.450Z,99472.00
2022-09-05T23:34:14.374Z,99468.00
2022-09-05T23:36:41.457Z,99471.00
2022-09-05T23:39:15.414Z,99464.00
2022-09-05T23:41:42.394Z,99459.00
2022-09-05T23:44:09.310Z,99467.00
2022-09-05T23:46:42.454Z,99462.00
2022-09-05T23:49:16.429Z,99460.00
2022-09-05T23:51:49.382Z,99454.00
2022-09-05T23:54:16.463Z,99460.00
2022-09-05T23:56:43.435Z,99457.00
2022-09-05T23:59:17.418Z,99456.00
